createdAt,value
2022-08-02T00:00:13.858Z,100.00
2022-08-02T00:02:44.749Z,100.00
2022-08-02T00:05:11.810Z,100.00
2022-08-02T00:07:41.138Z,100.00
2022-08-02T00:10:10.414Z,100.00
2022-08-02T00:12:37.419Z,100.00
2022-08-02T00:15:05.945Z,100.00
2022-08-02T00:17:32.642Z,100.00
2022-08-02T00:19:59.253Z,100.00
2022-08-02T00:22:25.805Z,100.00
2022-08-02T00:24:55.550Z,100.00
2022-08-02T00:27:22.111Z,100.00
2022-08-02T00:29:53.237Z,100.00
2022-08-02T00:32:20.818Z,100.00
2022-08-02T00:34:47.611Z,100.00
2022-08-02T00:37:14.277Z,100.00
2022-08-02T00:39:42.489Z,99.99
2022-08-02T00:42:09.810Z,100.00
2022-08-02T00:44:36.612Z,100.00
2022-08-02T00:47:03.370Z,100.00
2022-08-02T00:49:30.203Z,100.00
2022-08-02T00:51:59.638Z,100.00
2022-08-02T00:54:26.706Z,100.00
2022-08-02T00:56:53.258Z,99.68
2022-08-02T00:59:19.949Z,99.64
2022-08-02T01:01:55.666Z,99.17
2022-08-02T01:04:30.292Z,100.00
2022-08-02T01:06:58.883Z,100.00
2022-08-02T01:09:25.883Z,100.00
2022-08-02T01:11:52.697Z,100.00
2022-08-02T01:14:20.857Z,100.00
2022-08-02T01:16:54.085Z,100.00
2022-08-02T01:19:39.448Z,100.00
2022-08-02T01:22:19.253Z,100.00
2022-08-02T01:24:56.210Z,100.00
2022-08-02T01:28:00.046Z,100.00
2022-08-02T01:30:28.611Z,100.00
2022-08-02T01:33:00.395Z,100.00
2022-08-02T01:35:50.898Z,100.00
2022-08-02T01:38:27.601Z,100.00
2022-08-02T01:40:59.869Z,100.00
2022-08-02T01:43:30.465Z,100.00
2022-08-02T01:46:00.076Z,100.00
2022-08-02T01:48:34.303Z,100.00
2022-08-02T01:51:04.147Z,100.00
2022-08-02T01:53:32.443Z,100.00
2022-08-02T01:56:00.107Z,100.00
2022-08-02T01:58:33.795Z,100.00
2022-08-02T02:01:01.699Z,100.00
2022-08-02T02:03:29.901Z,100.00
2022-08-02T02:05:59.053Z,100.00
2022-08-02T02:08:32.337Z,100.00
2022-08-02T02:12:11.470Z,100.00
2022-08-02T02:13:48.933Z,100.00
2022-08-02T02:16:16.445Z,100.00
2022-08-02T02:18:45.019Z,100.00
2022-08-02T02:21:12.379Z,100.00
2022-08-02T02:23:39.168Z,100.00
2022-08-02T02:26:12.931Z,100.00
2022-08-02T02:28:41.177Z,100.00
2022-08-02T02:31:11.858Z,100.00
2022-08-02T02:33:49.462Z,100.00
2022-08-02T02:36:18.898Z,100.00
2022-08-02T02:38:47.076Z,100.00
2022-08-02T02:41:14.957Z,100.00
2022-08-02T02:43:43.485Z,100.00
2022-08-02T02:46:11.725Z,100.00
2022-08-02T02:48:38.437Z,100.00
2022-08-02T02:51:06.333Z,100.00
2022-08-02T02:54:29.902Z,100.00
2022-08-02T02:56:23.854Z,100.00
2022-08-02T02:58:50.984Z,100.00
2022-08-02T03:01:55.884Z,100.00
2022-08-02T03:04:21.188Z,100.00
2022-08-02T03:06:48.042Z,100.00
2022-08-02T03:09:14.733Z,100.00
2022-08-02T03:11:41.828Z,100.00
2022-08-02T03:14:12.481Z,100.00
2022-08-02T03:16:50.527Z,100.00
2022-08-02T03:19:17.945Z,100.00
2022-08-02T03:21:46.259Z,100.00
2022-08-02T03:24:14.059Z,100.00
2022-08-02T03:26:41.963Z,100.00
2022-08-02T03:29:09.798Z,100.00
2022-08-02T03:31:41.654Z,100.00
2022-08-02T03:34:08.542Z,100.00
2022-08-02T03:36:36.420Z,100.00
2022-08-02T03:39:05.134Z,100.00
2022-08-02T03:41:33.347Z,100.00
2022-08-02T03:44:00.878Z,100.00
2022-08-02T03:46:27.953Z,100.00
2022-08-02T03:48:55.202Z,100.00
2022-08-02T03:51:22.886Z,100.00
2022-08-02T03:53:49.687Z,100.00
2022-08-02T03:56:16.936Z,100.00
2022-08-02T03:58:48.878Z,100.00
2022-08-02T04:01:16.688Z,100.00
2022-08-02T04:03:46.390Z,100.00
2022-08-02T04:06:12.876Z,100.00
2022-08-02T04:08:42.403Z,100.00
2022-08-02T04:11:27.595Z,100.00
2022-08-02T04:13:56.750Z,100.00
2022-08-02T04:16:48.334Z,100.00
2022-08-02T04:19:25.764Z,100.00
2022-08-02T04:21:54.820Z,100.00
2022-08-02T04:24:28.329Z,100.00
2022-08-02T04:26:57.748Z,100.00
2022-08-02T04:29:34.145Z,100.00
2022-08-02T04:32:00.973Z,100.00
2022-08-02T04:34:28.097Z,100.00
2022-08-02T04:36:55.016Z,100.00
2022-08-02T04:39:21.535Z,100.00
2022-08-02T04:41:48.193Z,100.00
2022-08-02T04:44:14.855Z,100.00
2022-08-02T04:46:44.034Z,100.00
2022-08-02T04:49:13.119Z,100.00
2022-08-02T04:51:41.399Z,100.00
2022-08-02T04:54:10.335Z,100.00
2022-08-02T04:56:38.940Z,100.00
2022-08-02T04:59:06.549Z,100.00
2022-08-02T05:01:33.495Z,100.00
2022-08-02T05:04:00.012Z,100.00
2022-08-02T05:06:26.667Z,100.00
2022-08-02T05:08:53.753Z,100.00
2022-08-02T05:11:34.312Z,100.00
2022-08-02T05:14:03.842Z,100.00
2022-08-02T05:16:31.572Z,100.00
2022-08-02T05:18:59.602Z,100.00
2022-08-02T05:21:26.472Z,100.00
2022-08-02T05:23:53.027Z,100.00
2022-08-02T05:26:19.742Z,100.00
2022-08-02T05:28:46.467Z,100.00
2022-08-02T05:31:13.400Z,100.00
2022-08-02T05:33:40.524Z,100.00
2022-08-02T05:36:09.304Z,100.00
2022-08-02T05:38:37.237Z,100.00
2022-08-02T05:41:04.639Z,100.00
2022-08-02T05:43:31.322Z,100.00
2022-08-02T05:45:58.017Z,100.00
2022-08-02T05:48:30.679Z,100.00
2022-08-02T05:51:05.321Z,100.00
2022-08-02T05:53:45.568Z,100.00
2022-08-02T05:56:33.722Z,100.00
2022-08-02T05:59:04.471Z,100.00
2022-08-02T06:01:37.885Z,100.00
2022-08-02T06:04:10.592Z,100.00
2022-08-02T06:06:37.977Z,100.00
2022-08-02T06:09:10.862Z,100.00
2022-08-02T06:12:01.802Z,100.00
2022-08-02T06:14:33.104Z,100.00
2022-08-02T06:17:04.506Z,100.00
2022-08-02T06:19:46.795Z,100.00
2022-08-02T06:22:35.944Z,100.00
2022-08-02T06:25:05.480Z,100.00
2022-08-02T06:27:34.192Z,100.00
2022-08-02T06:30:02.375Z,100.00
2022-08-02T06:32:28.895Z,100.00
2022-08-02T06:34:55.634Z,100.00
2022-08-02T06:37:35.710Z,100.00
2022-08-02T06:40:18.852Z,100.00
2022-08-02T06:42:52.283Z,100.00
2022-08-02T06:45:19.065Z,100.00
2022-08-02T06:47:45.798Z,100.00
2022-08-02T06:50:12.429Z,100.00
2022-08-02T06:52:39.319Z,100.00
2022-08-02T06:55:06.768Z,100.00
2022-08-02T06:57:33.978Z,100.00
2022-08-02T07:00:06.883Z,100.00
2022-08-02T07:02:37.657Z,100.00
2022-08-02T07:05:04.873Z,100.00
2022-08-02T07:07:31.731Z,100.00
2022-08-02T07:10:01.246Z,100.00
2022-08-02T07:12:32.839Z,100.00
2022-08-02T07:15:00.917Z,100.00
2022-08-02T07:17:28.486Z,100.00
2022-08-02T07:19:55.257Z,100.00
2022-08-02T07:22:23.553Z,99.56
2022-08-02T07:24:51.103Z,97.57
2022-08-02T07:27:17.730Z,98.01
2022-08-02T07:29:46.071Z,97.25
2022-08-02T07:32:20.825Z,95.22
2022-08-02T07:34:53.055Z,90.00
2022-08-02T07:37:52.949Z,87.96
2022-08-02T07:40:14.706Z,83.68
2022-08-02T07:42:45.087Z,83.36
2022-08-02T07:45:13.269Z,83.75
2022-08-02T07:47:41.027Z,82.88
2022-08-02T07:50:09.730Z,82.08
2022-08-02T07:52:36.396Z,79.76
2022-08-02T07:55:03.540Z,78.46
2022-08-02T07:57:31.040Z,78.88
2022-08-02T07:59:57.664Z,76.62
2022-08-02T08:02:25.100Z,75.90
2022-08-02T08:04:52.936Z,73.13
2022-08-02T08:07:20.307Z,73.73
2022-08-02T08:09:48.145Z,72.37
2022-08-02T08:12:16.302Z,71.54
2022-08-02T08:14:43.901Z,71.95
2022-08-02T08:17:10.429Z,72.67
2022-08-02T08:19:50.766Z,73.22
2022-08-02T08:22:18.484Z,71.27
2022-08-02T08:24:45.412Z,70.21
2022-08-02T08:27:14.651Z,70.66
2022-08-02T08:29:45.217Z,69.29
2022-08-02T08:32:17.829Z,67.76
2022-08-02T08:34:46.006Z,68.64
2022-08-02T08:37:17.057Z,66.75
2022-08-02T08:39:56.983Z,66.30
2022-08-02T08:42:29.366Z,65.71
2022-08-02T08:44:57.719Z,67.04
2022-08-02T08:47:36.896Z,63.76
2022-08-02T08:50:06.624Z,64.16
2022-08-02T08:52:42.313Z,64.32
2022-08-02T08:55:11.991Z,63.67
2022-08-02T08:57:43.601Z,67.16
2022-08-02T09:00:16.895Z,66.92
2022-08-02T09:02:43.912Z,65.58
2022-08-02T09:05:12.490Z,64.52
2022-08-02T09:07:39.307Z,64.13
2022-08-02T09:10:33.728Z,63.58
2022-08-02T09:13:38.838Z,62.96
2022-08-02T09:16:12.792Z,61.79
2022-08-02T09:18:45.276Z,61.27
2022-08-02T09:21:13.750Z,60.49
2022-08-02T09:23:42.658Z,59.08
2022-08-02T09:26:11.349Z,59.25
2022-08-02T09:28:40.591Z,59.95
2022-08-02T09:31:12.492Z,59.68
2022-08-02T09:33:40.980Z,58.45
2022-08-02T09:36:13.076Z,58.23
2022-08-02T09:38:41.109Z,58.52
2022-08-02T09:41:22.037Z,57.93
2022-08-02T09:43:57.941Z,56.08
2022-08-02T09:46:37.642Z,54.90
2022-08-02T09:49:09.921Z,54.44
2022-08-02T09:51:47.426Z,54.76
2022-08-02T09:54:28.714Z,55.23
2022-08-02T09:56:58.190Z,57.54
2022-08-02T09:59:26.136Z,55.39
2022-08-02T10:02:02.616Z,56.03
2022-08-02T10:04:51.962Z,54.99
2022-08-02T10:07:22.333Z,56.03
2022-08-02T10:09:50.893Z,53.06
2022-08-02T10:12:19.100Z,56.02
2022-08-02T10:14:46.030Z,53.54
2022-08-02T10:17:13.406Z,51.69
2022-08-02T10:20:03.077Z,51.08
2022-08-02T10:22:27.355Z,52.16
2022-08-02T10:24:54.000Z,51.36
2022-08-02T10:27:21.379Z,53.66
2022-08-02T10:29:53.969Z,52.80
2022-08-02T10:32:37.560Z,52.00
2022-08-02T10:35:23.333Z,51.63
2022-08-02T10:37:56.490Z,51.14
2022-08-02T10:40:24.231Z,51.24
2022-08-02T10:42:53.446Z,50.35
2022-08-02T10:45:22.401Z,50.33
2022-08-02T10:48:11.967Z,50.27
2022-08-02T10:50:47.993Z,47.77
2022-08-02T10:53:25.677Z,48.98
2022-08-02T10:55:53.807Z,52.20
2022-08-02T10:58:26.281Z,49.49
2022-08-02T11:00:57.625Z,49.17
2022-08-02T11:03:41.950Z,50.31
2022-08-02T11:06:25.675Z,51.15
2022-08-02T11:09:33.369Z,50.96
2022-08-02T11:12:13.466Z,49.59
2022-08-02T11:14:45.830Z,49.79
2022-08-02T11:17:19.689Z,48.74
2022-08-02T11:20:11.045Z,49.97
2022-08-02T11:22:40.761Z,47.85
2022-08-02T11:25:22.613Z,48.74
2022-08-02T11:27:53.128Z,49.01
2022-08-02T11:30:20.685Z,46.10
2022-08-02T11:33:00.820Z,46.21
2022-08-02T11:35:35.568Z,47.03
2022-08-02T11:38:19.741Z,45.75
2022-08-02T11:40:48.108Z,46.65
2022-08-02T11:43:23.444Z,45.02
2022-08-02T11:45:52.452Z,44.25
2022-08-02T11:48:32.083Z,44.73
2022-08-02T11:51:10.898Z,46.03
2022-08-02T11:53:57.447Z,45.93
2022-08-02T11:56:35.614Z,47.72
2022-08-02T11:59:14.646Z,46.68
2022-08-02T12:01:45.697Z,43.75
2022-08-02T12:04:16.283Z,45.24
2022-08-02T12:06:43.761Z,45.10
2022-08-02T12:09:18.880Z,46.59
2022-08-02T12:11:51.647Z,44.79
2022-08-02T12:14:18.895Z,44.70
2022-08-02T12:17:04.241Z,45.62
2022-08-02T12:19:34.616Z,44.06
2022-08-02T12:22:18.659Z,45.44
2022-08-02T12:24:50.548Z,45.51
2022-08-02T12:27:38.187Z,46.74
2022-08-02T12:30:04.651Z,45.56
2022-08-02T12:32:31.294Z,42.99
2022-08-02T12:35:05.988Z,42.38
2022-08-02T12:37:32.724Z,43.30
2022-08-02T12:40:17.168Z,41.95
2022-08-02T12:42:49.526Z,41.76
2022-08-02T12:45:16.908Z,42.78
2022-08-02T12:47:49.229Z,39.45
2022-08-02T12:50:37.317Z,40.67
2022-08-02T12:53:11.304Z,41.10
2022-08-02T12:56:01.179Z,40.92
2022-08-02T12:58:31.077Z,40.32
2022-08-02T13:01:00.461Z,40.72
2022-08-02T13:04:09.227Z,40.97
2022-08-02T13:06:39.828Z,41.60
2022-08-02T13:09:03.123Z,40.09
2022-08-02T13:11:29.680Z,38.92
2022-08-02T13:13:56.225Z,39.56
2022-08-02T13:16:31.308Z,37.08
2022-08-02T13:18:59.223Z,39.29
2022-08-02T13:21:39.893Z,40.55
2022-08-02T13:24:32.941Z,39.29
2022-08-02T13:26:54.708Z,39.32
2022-08-02T13:29:21.338Z,41.64
2022-08-02T13:31:47.933Z,41.53
2022-08-02T13:34:16.540Z,40.85
2022-08-02T13:36:43.508Z,43.48
2022-08-02T13:39:11.882Z,44.58
2022-08-02T13:41:38.456Z,41.87
2022-08-02T13:44:10.409Z,42.98
2022-08-02T13:46:45.124Z,45.19
2022-08-02T13:49:18.546Z,44.58
2022-08-02T13:51:46.206Z,42.48
2022-08-02T13:54:12.794Z,40.35
2022-08-02T13:56:39.391Z,41.41
2022-08-02T13:59:54.925Z,39.74
2022-08-02T14:01:54.209Z,40.08
2022-08-02T14:04:20.853Z,39.33
2022-08-02T14:06:47.406Z,40.43
2022-08-02T14:09:16.824Z,40.16
2022-08-02T14:11:44.204Z,40.13
2022-08-02T14:14:16.237Z,40.60
2022-08-02T14:16:44.669Z,40.58
2022-08-02T14:19:16.802Z,40.62
2022-08-02T14:21:46.996Z,41.37
2022-08-02T14:24:18.825Z,40.72
2022-08-02T14:26:45.997Z,38.69
2022-08-02T14:29:13.802Z,39.61
2022-08-02T14:31:44.363Z,39.30
2022-08-02T14:34:12.117Z,41.27
2022-08-02T14:36:39.189Z,40.72
2022-08-02T14:39:06.223Z,40.13
2022-08-02T14:41:33.989Z,40.77
2022-08-02T14:44:20.571Z,41.24
2022-08-02T14:46:47.208Z,41.02
2022-08-02T14:49:25.374Z,42.48
2022-08-02T14:51:53.290Z,41.77
2022-08-02T14:54:19.895Z,44.66
2022-08-02T14:56:46.427Z,41.79
2022-08-02T14:59:15.491Z,42.31
2022-08-02T15:01:42.083Z,43.84
2022-08-02T15:04:08.691Z,43.08
2022-08-02T15:06:35.229Z,43.05
2022-08-02T15:09:01.851Z,43.74
2022-08-02T15:11:28.582Z,44.17
2022-08-02T15:13:55.274Z,44.25
2022-08-02T15:16:47.305Z,44.01
2022-08-02T15:19:13.139Z,45.83
2022-08-02T15:21:41.829Z,45.54
2022-08-02T15:24:19.068Z,43.99
2022-08-02T15:26:50.309Z,47.53
2022-08-02T15:29:17.750Z,47.47
2022-08-02T15:31:44.319Z,49.92
2022-08-02T15:34:10.985Z,46.00
2022-08-02T15:36:38.053Z,47.51
2022-08-02T15:39:04.917Z,46.39
2022-08-02T15:41:31.958Z,45.60
2022-08-02T15:44:00.063Z,44.71
2022-08-02T15:46:32.141Z,44.77
2022-08-02T15:48:59.648Z,44.26
2022-08-02T15:51:27.077Z,44.11
2022-08-02T15:53:53.693Z,43.42
2022-08-02T15:56:23.856Z,44.03
2022-08-02T15:58:51.886Z,43.98
2022-08-02T16:01:22.795Z,44.69
2022-08-02T16:03:49.433Z,45.04
2022-08-02T16:06:15.957Z,45.55
2022-08-02T16:08:51.662Z,46.01
2022-08-02T16:11:21.553Z,45.63
2022-08-02T16:13:54.041Z,46.15
2022-08-02T16:16:29.240Z,45.88
2022-08-02T16:18:56.506Z,45.78
2022-08-02T16:21:24.745Z,46.18
2022-08-02T16:24:01.165Z,46.08
2022-08-02T16:26:31.228Z,46.22
2022-08-02T16:28:58.907Z,45.49
2022-08-02T16:31:25.682Z,45.83
2022-08-02T16:33:56.621Z,45.24
2022-08-02T16:36:24.375Z,50.73
2022-08-02T16:38:51.354Z,49.36
2022-08-02T16:41:19.143Z,48.27
2022-08-02T16:43:45.886Z,47.06
2022-08-02T16:46:12.633Z,47.84
2022-08-02T16:48:39.400Z,46.40
2022-08-02T16:51:13.508Z,46.75
2022-08-02T16:53:59.876Z,46.05
2022-08-02T16:56:28.857Z,46.37
2022-08-02T16:58:59.795Z,46.25
2022-08-02T17:01:28.065Z,46.91
2022-08-02T17:04:14.302Z,47.14
2022-08-02T17:06:47.578Z,47.38
2022-08-02T17:10:01.894Z,48.62
2022-08-02T17:12:06.171Z,47.32
2022-08-02T17:14:41.979Z,48.12
2022-08-02T17:17:21.995Z,47.57
2022-08-02T17:20:04.144Z,48.25
2022-08-02T17:22:30.679Z,47.72
2022-08-02T17:25:04.635Z,47.11
2022-08-02T17:27:31.173Z,47.10
2022-08-02T17:29:59.694Z,47.55
2022-08-02T17:32:29.088Z,49.13
2022-08-02T17:34:59.966Z,48.29
2022-08-02T17:37:27.251Z,47.95
2022-08-02T17:39:55.634Z,49.12
2022-08-02T17:42:23.130Z,47.32
2022-08-02T17:44:50.252Z,48.47
2022-08-02T17:47:18.149Z,47.79
2022-08-02T17:49:52.646Z,47.18
2022-08-02T17:52:51.516Z,47.59
2022-08-02T17:55:16.644Z,47.80
2022-08-02T17:57:55.892Z,48.49
2022-08-02T18:00:26.933Z,48.19
2022-08-02T18:02:56.309Z,47.65
2022-08-02T18:05:41.576Z,48.63
2022-08-02T18:08:18.309Z,48.62
2022-08-02T18:10:45.345Z,48.65
2022-08-02T18:13:11.864Z,49.04
2022-08-02T18:15:38.715Z,49.68
2022-08-02T18:18:05.247Z,49.21
2022-08-02T18:20:36.952Z,49.39
2022-08-02T18:23:04.313Z,51.67
2022-08-02T18:25:37.881Z,52.98
2022-08-02T18:28:12.472Z,54.00
2022-08-02T18:30:39.217Z,52.83
2022-08-02T18:33:57.605Z,53.42
2022-08-02T18:35:55.386Z,54.32
2022-08-02T18:38:26.868Z,54.06
2022-08-02T18:40:54.684Z,53.68
2022-08-02T18:43:25.066Z,57.58
2022-08-02T18:46:07.159Z,56.76
2022-08-02T18:48:46.188Z,58.22
2022-08-02T18:51:14.563Z,59.65
2022-08-02T18:53:42.913Z,61.19
2022-08-02T18:56:19.760Z,59.48
2022-08-02T18:58:50.792Z,60.72
2022-08-02T19:01:32.670Z,66.92
2022-08-02T19:04:01.596Z,67.15
2022-08-02T19:06:29.086Z,65.02
2022-08-02T19:09:11.611Z,67.30
2022-08-02T19:11:47.930Z,66.39
2022-08-02T19:14:27.035Z,69.28
2022-08-02T19:16:59.535Z,69.58
2022-08-02T19:19:28.780Z,68.87
2022-08-02T19:22:18.266Z,66.83
2022-08-02T19:24:47.813Z,66.59
2022-08-02T19:27:15.339Z,66.30
2022-08-02T19:29:49.050Z,65.26
2022-08-02T19:32:41.448Z,64.96
2022-08-02T19:35:19.838Z,63.70
2022-08-02T19:38:10.598Z,62.38
2022-08-02T19:40:41.774Z,62.49
2022-08-02T19:44:27.201Z,62.61
2022-08-02T19:45:57.110Z,62.87
2022-08-02T19:48:25.494Z,63.09
2022-08-02T19:51:01.040Z,62.91
2022-08-02T19:53:48.299Z,63.39
2022-08-02T19:56:25.374Z,63.18
2022-08-02T19:58:55.704Z,63.24
2022-08-02T20:01:37.043Z,62.80
2022-08-02T20:04:07.709Z,63.30
2022-08-02T20:06:42.698Z,63.21
2022-08-02T20:09:21.516Z,63.26
2022-08-02T20:11:54.268Z,63.30
2022-08-02T20:14:24.860Z,63.68
2022-08-02T20:16:53.950Z,63.91
2022-08-02T20:19:21.769Z,63.72
2022-08-02T20:21:56.675Z,63.48
2022-08-02T20:24:26.664Z,63.88
2022-08-02T20:26:53.502Z,64.61
2022-08-02T20:29:48.385Z,64.00
2022-08-02T20:32:07.851Z,63.89
2022-08-02T20:34:36.167Z,64.89
2022-08-02T20:37:59.883Z,63.76
2022-08-02T20:39:51.029Z,63.84
2022-08-02T20:42:23.415Z,63.97
2022-08-02T20:44:55.211Z,66.44
2022-08-02T20:47:38.849Z,69.98
2022-08-02T20:50:30.471Z,73.09
2022-08-02T20:52:59.220Z,74.50
2022-08-02T20:55:27.035Z,75.80
2022-08-02T20:58:00.561Z,77.55
2022-08-02T21:00:28.322Z,77.61
2022-08-02T21:02:55.503Z,78.29
2022-08-02T21:05:27.007Z,76.91
2022-08-02T21:08:14.227Z,75.83
2022-08-02T21:10:50.544Z,75.68
2022-08-02T21:13:26.233Z,76.95
2022-08-02T21:15:55.403Z,77.70
2022-08-02T21:18:37.694Z,75.82
2022-08-02T21:21:09.035Z,76.11
2022-08-02T21:23:48.689Z,75.79
2022-08-02T21:26:16.109Z,75.63
2022-08-02T21:28:47.614Z,75.09
2022-08-02T21:31:18.351Z,75.55
2022-08-02T21:33:57.001Z,75.03
2022-08-02T21:36:33.817Z,75.33
2022-08-02T21:39:05.198Z,75.30
2022-08-02T21:41:48.792Z,75.93
2022-08-02T21:44:16.742Z,76.47
2022-08-02T21:46:49.262Z,74.83
2022-08-02T21:49:40.792Z,75.39
2022-08-02T21:52:10.283Z,73.46
2022-08-02T21:54:39.769Z,73.83
2022-08-02T21:57:07.484Z,70.81
2022-08-02T21:59:35.482Z,70.11
2022-08-02T22:02:04.701Z,68.29
2022-08-02T22:04:48.041Z,67.64
2022-08-02T22:07:24.057Z,67.88
2022-08-02T22:09:51.523Z,67.09
2022-08-02T22:12:19.431Z,66.57
2022-08-02T22:14:55.002Z,65.54
2022-08-02T22:17:51.930Z,65.28
2022-08-02T22:20:19.766Z,64.80
2022-08-02T22:22:48.147Z,65.29
2022-08-02T22:25:21.612Z,65.59
2022-08-02T22:28:38.785Z,65.12
2022-08-02T22:31:00.173Z,64.83
2022-08-02T22:34:05.239Z,64.52
2022-08-02T22:36:43.815Z,64.48
2022-08-02T22:39:19.387Z,64.52
2022-08-02T22:42:06.488Z,64.62
2022-08-02T22:44:37.915Z,64.40
2022-08-02T22:47:14.988Z,64.66
2022-08-02T22:49:51.723Z,64.82
2022-08-02T22:52:29.250Z,64.48
2022-08-02T22:54:55.814Z,64.07
2022-08-02T22:57:30.976Z,64.27
2022-08-02T22:59:59.479Z,64.25
2022-08-02T23:02:26.160Z,64.35
2022-08-02T23:04:55.539Z,64.37
2022-08-02T23:07:22.099Z,63.92
2022-08-02T23:09:48.635Z,63.84
2022-08-02T23:12:19.214Z,64.04
2022-08-02T23:14:50.601Z,63.91
2022-08-02T23:17:36.409Z,65.22
2022-08-02T23:20:04.385Z,64.70
2022-08-02T23:22:33.201Z,64.74
2022-08-02T23:25:01.235Z,64.90
2022-08-02T23:27:29.430Z,64.55
2022-08-02T23:29:59.335Z,64.23
2022-08-02T23:32:32.688Z,65.54
2022-08-02T23:34:59.285Z,65.48
2022-08-02T23:37:26.197Z,64.85
2022-08-02T23:39:52.840Z,64.48
2022-08-02T23:42:19.669Z,65.86
2022-08-02T23:44:46.230Z,71.65
2022-08-02T23:47:12.877Z,73.40
2022-08-02T23:49:39.553Z,73.41
2022-08-02T23:52:09.615Z,76.36
2022-08-02T23:54:38.849Z,79.55
2022-08-02T23:57:20.113Z,80.85
2022-08-02T23:59:48.754Z,83.73
